Time;durP1;ratioP1;P1;durP2;ratioP2;P2;SDS_P1;SDS_P2;PMS_P1;PMS_P2;Temp;Humidity;BMP_temperature;BMP_pressure;BME280_temperature;BME280_humidity;BME280_pressure;Samples;Min_cycle;Max_cycle;Signal;HPM_P1;HPM_P2
2022/10/05 00:00:15;;;;;;;2.42;1.98;;;19.10;58.80;;;;;;6225815;22;20227;-79
2022/10/05 00:02:40;;;;;;;2.15;1.95;;;19.00;58.80;;;;;;6277341;22;20566;-79
2022/10/05 00:05:24;;;;;;;2.10;1.90;;;19.00;58.80;;;;;;6225177;22;20132;-79
2022/10/05 00:07:50;;;;;;;2.47;1.98;;;19.00;58.80;;;;;;6225860;22;20152;-79
2022/10/05 00:10:17;;;;;;;2.15;1.95;;;19.10;58.90;;;;;;6277352;22;20184;-78
2022/10/05 00:12:44;;;;;;;2.10;1.90;;;19.00;58.90;;;;;;6225503;22;20539;-79
2022/10/05 00:15:11;;;;;;;2.33;2.10;;;19.00;58.90;;;;;;6199813;22;20175;-79
2022/10/05 00:17:37;;;;;;;2.22;2.03;;;19.00;58.90;;;;;;6277589;22;20143;-79
2022/10/05 00:20:22;;;;;;;2.30;2.10;;;19.00;58.90;;;;;;6250056;22;20156;-79
2022/10/05 00:22:48;;;;;;;1.88;1.77;;;19.00;58.90;;;;;;6250798;22;20247;-79
2022/10/05 00:25:16;;;;;;;2.17;1.98;;;19.00;58.90;;;;;;6250680;22;20137;-79
2022/10/05 00:27:41;;;;;;;2.65;1.95;;;19.00;58.90;;;;;;6250561;22;20223;-79
2022/10/05 00:30:14;;;;;;;1.88;1.70;;;19.00;58.90;;;;;;6225367;22;20540;-78
2022/10/05 00:32:39;;;;;;;2.47;2.10;;;19.00;58.90;;;;;;6200038;22;20180;-79
2022/10/05 00:35:05;;;;;;;2.13;1.92;;;19.00;58.90;;;;;;6250150;22;20525;-79
2022/10/05 00:37:31;;;;;;;2.20;2.00;;;19.00;58.90;;;;;;6225135;22;20129;-79
2022/10/05 00:39:57;;;;;;;2.42;1.90;;;19.00;58.90;;;;;;6250178;22;20210;-79
2022/10/05 00:42:51;;;;;;;2.28;2.08;;;19.00;58.90;;;;;;6224659;22;20484;-78
2022/10/05 00:45:22;;;;;;;2.67;2.10;;;19.00;59.00;;;;;;6225135;22;20231;-80
2022/10/05 00:48:08;;;;;;;2.15;1.95;;;19.00;59.00;;;;;;6249941;22;20166;-79
2022/10/05 00:50:59;;;;;;;2.65;2.15;;;19.00;59.00;;;;;;6277189;22;20132;-78
2022/10/05 00:53:38;;;;;;;2.20;2.00;;;19.00;59.00;;;;;;6250121;22;20208;-79
2022/10/05 00:56:32;;;;;;;2.15;1.98;;;19.00;59.10;;;;;;6251945;22;20514;-79
2022/10/05 00:59:22;;;;;;;2.30;2.10;;;19.00;59.10;;;;;;6133637;22;20483;-79
2022/10/05 01:02:02;;;;;;;2.17;1.98;;;19.00;59.10;;;;;;6250465;22;20160;-80
2022/10/05 01:04:44;;;;;;;2.55;2.22;;;19.00;59.10;;;;;;6277114;22;20164;-79
2022/10/05 01:07:22;;;;;;;2.40;2.10;;;18.90;59.10;;;;;;6224484;22;20159;-79
2022/10/05 01:10:06;;;;;;;2.78;1.90;;;19.00;59.10;;;;;;6276591;22;20195;-78
2022/10/05 01:12:58;;;;;;;2.53;2.13;;;18.90;59.10;;;;;;6223568;22;20184;-80
2022/10/05 01:15:31;;;;;;;3.70;2.40;;;19.00;59.10;;;;;;6183900;22;20199;-79
2022/10/05 01:18:11;;;;;;;2.10;1.80;;;19.00;59.10;;;;;;6175133;22;20149;-79
2022/10/05 01:20:50;;;;;;;2.40;2.20;;;18.90;59.10;;;;;;6225569;22;20125;-79
2022/10/05 01:23:53;;;;;;;2.20;1.90;;;18.90;59.10;;;;;;6276664;22;20157;-79
2022/10/05 01:26:44;;;;;;;2.13;1.90;;;19.00;59.10;;;;;;6249660;22;20219;-79
2022/10/05 01:29:33;;;;;;;2.13;1.92;;;19.00;59.10;;;;;;6228456;22;20627;-79
2022/10/05 01:32:24;;;;;;;2.30;2.10;;;19.00;59.10;;;;;;6276523;22;20215;-79
2022/10/05 01:35:23;;;;;;;2.30;2.10;;;19.00;59.10;;;;;;6276856;22;20478;-78
2022/10/05 01:38:04;;;;;;;2.15;1.95;;;19.00;59.10;;;;;;6257455;22;20574;-79
2022/10/05 01:40:37;;;;;;;2.33;2.05;;;19.00;59.10;;;;;;6225982;22;20144;-79
2022/10/05 01:43:26;;;;;;;2.22;2.00;;;19.00;59.10;;;;;;6225163;22;20584;-79
2022/10/05 01:46:22;;;;;;;2.15;1.95;;;19.00;59.20;;;;;;6254122;22;20211;-79
2022/10/05 01:49:04;;;;;;;2.30;2.10;;;19.00;59.20;;;;;;6249957;22;20155;-79
2022/10/05 01:51:42;;;;;;;2.13;1.92;;;19.00;59.20;;;;;;6224021;22;20600;-78
2022/10/05 01:54:27;;;;;;;1.80;1.70;;;19.00;59.20;;;;;;6249858;22;20140;-79
2022/10/05 01:57:09;;;;;;;2.33;2.13;;;19.00;59.20;;;;;;6226417;22;20129;-79
2022/10/05 01:59:51;;;;;;;2.28;2.08;;;19.00;59.20;;;;;;6249269;22;20550;-79
2022/10/05 02:02:18;;;;;;;1.88;1.77;;;19.00;59.20;;;;;;6224741;22;20149;-79
2022/10/05 02:04:50;;;;;;;2.63;2.20;;;19.00;59.20;;;;;;6249514;22;20160;-78
2022/10/05 02:07:24;;;;;;;1.75;1.65;;;19.00;59.20;;;;;;6276767;22;20482;-79
2022/10/05 02:09:57;;;;;;;2.28;2.08;;;18.90;59.20;;;;;;6224445;22;20511;-79
2022/10/05 02:12:24;;;;;;;3.53;2.10;;;18.90;59.20;;;;;;6249678;22;20638;-79
2022/10/05 02:14:52;;;;;;;2.42;2.05;;;19.00;59.30;;;;;;6249717;22;20172;-79
2022/10/05 02:17:21;;;;;;;2.42;2.20;;;18.90;59.20;;;;;;6276751;22;20141;-79
2022/10/05 02:19:49;;;;;;;2.22;2.03;;;18.90;59.20;;;;;;6224684;22;20149;-79
2022/10/05 02:22:19;;;;;;;2.22;2.03;;;19.00;59.30;;;;;;6276340;22;20141;-79
2022/10/05 02:24:47;;;;;;;2.25;2.00;;;18.90;59.20;;;;;;6225474;22;20129;-79
2022/10/05 02:27:15;;;;;;;1.92;1.83;;;18.90;59.30;;;;;;6276348;22;20136;-78
2022/10/05 02:29:42;;;;;;;2.00;1.80;;;18.90;59.30;;;;;;6249310;22;20507;-79
2022/10/05 02:32:13;;;;;;;2.60;2.10;;;18.90;59.20;;;;;;6249341;22;20169;-79
2022/10/05 02:34:40;;;;;;;2.30;2.10;;;18.90;59.30;;;;;;6249643;22;20137;-79
2022/10/05 02:37:28;;;;;;;1.98;1.77;;;18.90;59.30;;;;;;6224346;22;20145;-79
2022/10/05 02:40:18;;;;;;;1.98;1.88;;;18.90;59.30;;;;;;6231023;22;20141;-79
2022/10/05 02:43:00;;;;;;;2.40;2.17;;;18.90;59.40;;;;;;6230979;22;20153;-79
2022/10/05 02:45:57;;;;;;;2.05;1.85;;;18.90;59.40;;;;;;6203108;22;20159;-79
2022/10/05 02:48:33;;;;;;;2.60;2.20;;;18.90;59.40;;;;;;6278505;22;20457;-79
2022/10/05 02:51:17;;;;;;;2.63;2.10;;;18.90;59.40;;;;;;6252635;22;20160;-79
2022/10/05 02:53:56;;;;;;;2.30;2.10;;;18.90;59.40;;;;;;6278283;22;20129;-78
2022/10/05 02:56:37;;;;;;;1.90;1.73;;;18.90;59.40;;;;;;6277548;22;20129;-79
2022/10/05 02:59:22;;;;;;;2.42;2.20;;;18.90;59.40;;;;;;6278187;22;20137;-79
2022/10/05 03:01:50;;;;;;;2.50;2.30;;;18.90;59.50;;;;;;6179200;22;20148;-79
2022/10/05 03:04:48;;;;;;;1.80;1.70;;;18.90;59.50;;;;;;6226086;22;20580;-79
2022/10/05 03:07:25;;;;;;;2.30;2.10;;;18.90;59.50;;;;;;6278306;22;20145;-79
2022/10/05 03:10:08;;;;;;;2.75;2.15;;;18.90;59.60;;;;;;6245624;23;20558;-78
2022/10/05 03:12:48;;;;;;;2.42;2.00;;;18.90;59.60;;;;;;6222876;23;20180;-79
2022/10/05 03:15:49;;;;;;;2.10;1.90;;;18.80;59.50;;;;;;6246176;23;20477;-79
2022/10/05 03:18:39;;;;;;;1.80;1.70;;;18.80;59.50;;;;;;6247551;22;20148;-79
2022/10/05 03:21:25;;;;;;;2.28;2.08;;;18.80;59.50;;;;;;6247434;22;20141;-79
2022/10/05 03:24:09;;;;;;;2.08;1.80;;;18.90;59.60;;;;;;6247314;22;20140;-79
2022/10/05 03:26:45;;;;;;;2.88;2.05;;;18.90;59.60;;;;;;6247388;22;20516;-80
2022/10/05 03:29:35;;;;;;;1.92;1.73;;;18.90;59.60;;;;;;6195718;23;20187;-79
2022/10/05 03:32:29;;;;;;;2.20;2.00;;;18.90;59.60;;;;;;6225662;23;20177;-79
2022/10/05 03:35:10;;;;;;;2.28;2.08;;;18.90;59.60;;;;;;6245811;23;20172;-79
2022/10/05 03:38:00;;;;;;;1.65;1.55;;;18.80;59.60;;;;;;6246134;23;20130;-78
2022/10/05 03:40:39;;;;;;;2.10;1.90;;;18.80;59.50;;;;;;6224658;23;20146;-79
2022/10/05 03:43:30;;;;;;;2.30;2.10;;;18.90;59.60;;;;;;6221190;23;20209;-79
2022/10/05 03:46:03;;;;;;;2.15;1.95;;;18.80;59.50;;;;;;6245809;23;20145;-79
2022/10/05 03:48:36;;;;;;;2.08;1.98;;;18.80;59.50;;;;;;6247128;22;20145;-79
2022/10/05 03:51:15;;;;;;;2.13;1.92;;;18.80;59.50;;;;;;6247120;22;20165;-79
2022/10/05 03:53:46;;;;;;;2.55;1.88;;;18.80;59.50;;;;;;6246345;23;20209;-79
2022/10/05 03:56:19;;;;;;;1.90;1.80;;;18.80;59.50;;;;;;6245655;23;20137;-79
2022/10/05 03:58:53;;;;;;;2.30;2.10;;;18.80;59.60;;;;;;6196025;23;20165;-79
2022/10/05 04:01:22;;;;;;;2.22;1.92;;;18.80;59.70;;;;;;6219963;23;20202;-79
2022/10/05 04:03:51;;;;;;;2.25;2.05;;;18.80;59.50;;;;;;6245328;23;20535;-79
2022/10/05 04:06:27;;;;;;;2.20;2.00;;;18.90;59.60;;;;;;6220305;23;20535;-78
2022/10/05 04:08:55;;;;;;;2.10;1.90;;;18.80;59.60;;;;;;6245444;23;20638;-79
2022/10/05 04:11:33;;;;;;;2.17;1.98;;;18.80;59.60;;;;;;6245189;23;20492;-79
2022/10/05 04:14:11;;;;;;;2.10;1.90;;;18.90;59.70;;;;;;6245448;23;20703;-79
2022/10/05 04:16:43;;;;;;;2.10;1.90;;;18.80;59.70;;;;;;6245329;23;20133;-78
2022/10/05 04:19:17;;;;;;;1.90;1.80;;;18.80;59.70;;;;;;6245260;23;20412;-79
2022/10/05 04:21:54;;;;;;;1.90;1.80;;;18.80;59.70;;;;;;6246915;22;20149;-79
2022/10/05 04:24:53;;;;;;;2.22;2.00;;;18.80;59.80;;;;;;6245303;23;20160;-79
2022/10/05 04:27:20;;;;;;;1.90;1.77;;;18.80;59.80;;;;;;6245336;23;20217;-79
2022/10/05 04:29:52;;;;;;;2.25;1.88;;;18.90;59.80;;;;;;6219886;23;20236;-79
2022/10/05 04:32:34;;;;;;;2.40;2.15;;;18.80;59.80;;;;;;6245384;23;20181;-79
2022/10/05 04:35:23;;;;;;;2.75;1.80;;;18.80;59.80;;;;;;6246725;22;20137;-79
2022/10/05 04:38:15;;;;;;;1.80;1.70;;;18.80;59.70;;;;;;6246547;22;20565;-79
2022/10/05 04:41:05;;;;;;;2.35;1.80;;;18.80;59.70;;;;;;6245131;23;20155;-79
2022/10/05 04:43:48;;;;;;;2.20;1.98;;;18.80;59.80;;;;;;6199671;23;20524;-79
2022/10/05 04:46:39;;;;;;;2.03;1.80;;;18.80;59.80;;;;;;6246385;22;20161;-79
2022/10/05 04:49:29;;;;;;;2.10;1.90;;;18.80;59.90;;;;;;6199446;23;20149;-79
2022/10/05 04:52:26;;;;;;;2.50;1.90;;;18.80;59.90;;;;;;6224053;23;20168;-79
2022/10/05 04:55:14;;;;;;;1.83;1.70;;;18.80;60.00;;;;;;6181547;23;20153;-78
2022/10/05 04:57:48;;;;;;;2.20;2.00;;;18.80;60.00;;;;;;6246628;22;20129;-79
2022/10/05 05:00:23;;;;;;;2.75;2.05;;;18.80;59.90;;;;;;6195988;23;20272;-79
2022/10/05 05:03:24;;;;;;;2.17;1.73;;;18.80;59.90;;;;;;6244908;23;20264;-79
2022/10/05 05:06:00;;;;;;;2.38;2.05;;;18.80;59.90;;;;;;6246115;22;20153;-79
2022/10/05 05:09:04;;;;;;;2.15;1.80;;;18.80;60.00;;;;;;6246035;22;20168;-79
2022/10/05 05:11:51;;;;;;;2.38;2.08;;;18.80;60.10;;;;;;6258099;22;20600;-79
2022/10/05 05:14:34;;;;;;;1.80;1.70;;;18.80;60.50;;;;;;6249924;22;20464;-79
2022/10/05 05:17:24;;;;;;;1.92;1.80;;;18.80;60.60;;;;;;6253056;22;20137;-79
2022/10/05 05:20:14;;;;;;;2.13;1.92;;;18.90;60.90;;;;;;6249641;22;20133;-78
2022/10/05 05:22:51;;;;;;;1.73;1.63;;;18.90;61.00;;;;;;6277057;22;20141;-78
2022/10/05 05:25:34;;;;;;;2.17;2.00;;;18.90;61.00;;;;;;6276814;22;20133;-79
2022/10/05 05:28:24;;;;;;;1.95;1.80;;;18.90;61.00;;;;;;6227554;22;20163;-79
2022/10/05 05:31:05;;;;;;;1.80;1.70;;;18.90;61.10;;;;;;6228243;22;20163;-79
2022/10/05 05:33:53;;;;;;;2.28;2.08;;;18.90;61.20;;;;;;6252428;22;20129;-78
2022/10/05 05:36:35;;;;;;;2.40;2.20;;;18.90;61.30;;;;;;6249392;22;20147;-79
2022/10/05 05:39:26;;;;;;;1.90;1.80;;;18.90;61.40;;;;;;6277012;22;20143;-79
2022/10/05 05:41:59;;;;;;;2.33;2.13;;;19.00;61.50;;;;;;6205259;22;20159;-78
2022/10/05 05:44:28;;;;;;;2.40;2.20;;;18.90;61.40;;;;;;6250614;22;20139;-79
2022/10/05 05:47:15;;;;;;;2.58;2.08;;;18.90;61.50;;;;;;6249571;22;20140;-79
2022/10/05 05:49:55;;;;;;;3.53;2.00;;;19.00;61.60;;;;;;6154339;22;20168;-79
2022/10/05 05:52:27;;;;;;;3.92;2.10;;;19.00;61.60;;;;;;6276818;22;20204;-79
2022/10/05 05:54:58;;;;;;;2.55;2.35;;;19.00;61.60;;;;;;6225492;22;20157;-79
2022/10/05 05:57:28;;;;;;;2.00;1.90;;;19.00;61.80;;;;;;6199729;22;20152;-78
2022/10/05 06:00:14;;;;;;;2.13;1.95;;;19.00;61.70;;;;;;6276560;22;20128;-78
2022/10/05 06:02:45;;;;;;;2.10;2.00;;;19.00;61.80;;;;;;6252698;22;20133;-79
2022/10/05 06:05:26;;;;;;;2.92;2.17;;;19.00;61.90;;;;;;6250193;22;20137;-79
2022/10/05 06:07:52;;;;;;;3.28;2.30;;;19.00;61.90;;;;;;6276761;22;20222;-79
2022/10/05 06:10:35;;;;;;;4.22;2.30;;;19.00;62.00;;;;;;6276115;22;20188;-78
2022/10/05 06:13:06;;;;;;;2.33;2.10;;;19.00;62.00;;;;;;6252977;22;20582;-78
2022/10/05 06:16:08;;;;;;;2.88;2.20;;;19.00;62.00;;;;;;6226717;22;20152;-78
2022/10/05 06:18:35;;;;;;;3.83;2.47;;;19.00;62.10;;;;;;6251240;22;20171;-78
2022/10/05 06:21:09;;;;;;;2.65;2.33;;;19.10;62.30;;;;;;6278852;22;20137;-78
2022/10/05 06:23:41;;;;;;;5.63;2.60;;;19.00;62.40;;;;;;6278964;22;20137;-78
2022/10/05 06:26:16;;;;;;;4.53;2.53;;;19.10;62.40;;;;;;6252333;22;20144;-78
2022/10/05 06:28:42;;;;;;;2.53;2.33;;;19.10;62.60;;;;;;6251333;22;20696;-78
2022/10/05 06:31:45;;;;;;;4.35;2.40;;;19.10;62.50;;;;;;6277847;22;20189;-78
2022/10/05 06:34:37;;;;;;;3.58;2.50;;;19.10;62.70;;;;;;6250997;22;20144;-79
2022/10/05 06:37:12;;;;;;;3.78;2.47;;;19.10;62.70;;;;;;6204565;22;20598;-77
2022/10/05 06:40:01;;;;;;;4.45;2.30;;;19.10;62.70;;;;;;6225054;22;20566;-78
2022/10/05 06:42:50;;;;;;;4.07;2.40;;;19.10;62.80;;;;;;6199852;22;20187;-79
2022/10/05 06:45:29;;;;;;;2.67;2.42;;;19.10;62.80;;;;;;6252924;22;20564;-78
2022/10/05 06:48:11;;;;;;;3.53;2.40;;;19.10;63.00;;;;;;6250768;22;20140;-78
2022/10/05 06:50:46;;;;;;;3.95;2.80;;;19.10;63.10;;;;;;6277715;22;20133;-78
2022/10/05 06:53:35;;;;;;;3.85;2.53;;;19.10;63.20;;;;;;6251772;22;20140;-79
2022/10/05 06:56:21;;;;;;;3.65;2.55;;;19.10;63.20;;;;;;6229635;22;20580;-79
2022/10/05 06:59:03;;;;;;;2.80;2.60;;;19.10;63.20;;;;;;6250873;22;20137;-81
2022/10/05 07:02:09;;;;;;;2.65;2.45;;;19.10;63.30;;;;;;6277112;22;20140;-78
2022/10/05 07:04:55;;;;;;;3.05;2.65;;;19.10;63.40;;;;;;6255048;22;20137;-78
2022/10/05 07:07:29;;;;;;;3.72;2.70;;;19.10;63.50;;;;;;6277381;22;20133;-79
2022/10/05 07:10:04;;;;;;;3.17;2.65;;;19.10;63.60;;;;;;6249894;22;20192;-78
2022/10/05 07:12:43;;;;;;;2.60;2.40;;;19.10;63.60;;;;;;6249901;22;20166;-78
2022/10/05 07:15:46;;;;;;;2.72;2.35;;;19.10;63.70;;;;;;6278547;22;20148;-78
2022/10/05 07:18:25;;;;;;;3.13;2.83;;;19.20;63.80;;;;;;6256061;22;20149;-78
2022/10/05 07:21:33;;;;;;;5.00;2.72;;;19.20;63.80;;;;;;6279105;22;20259;-78
2022/10/05 07:24:15;;;;;;;3.50;2.72;;;19.20;63.90;;;;;;6239527;22;20530;-78
2022/10/05 07:26:45;;;;;;;3.10;2.80;;;19.20;64.20;;;;;;6255205;22;20522;-78
2022/10/05 07:29:18;;;;;;;3.13;2.80;;;19.20;64.00;;;;;;6251728;22;20132;-78
2022/10/05 07:32:05;;;;;;;2.70;2.47;;;19.20;64.90;;;;;;6252444;22;20165;-78
2022/10/05 07:34:50;;;;;;;2.80;2.55;;;19.20;64.20;;;;;;6278163;22;20204;-78
2022/10/05 07:40:08;;;;;;;3.13;2.83;;;19.20;64.30;;;;;;6252836;22;20596;-78
2022/10/05 07:42:44;;;;;;;4.32;3.40;;;19.20;64.30;;;;;;6250580;22;20140;-78
2022/10/05 07:45:39;;;;;;;2.90;2.70;;;19.20;64.30;;;;;;6251522;22;20518;-77
2022/10/05 07:48:21;;;;;;;2.92;2.45;;;19.20;64.40;;;;;;6277884;22;20144;-77
2022/10/05 07:51:15;;;;;;;2.60;2.35;;;19.30;64.50;;;;;;6226092;22;20751;-78
2022/10/05 07:53:47;;;;;;;3.10;2.78;;;19.20;64.40;;;;;;6278169;22;20136;-78
2022/10/05 07:56:21;;;;;;;3.55;2.78;;;19.20;64.50;;;;;;6250812;22;20587;-78
2022/10/05 07:58:54;;;;;;;3.20;2.90;;;19.30;64.70;;;;;;6251123;22;20139;-79
2022/10/05 08:01:24;;;;;;;2.80;2.53;;;19.30;64.80;;;;;;6278215;22;20463;-77
2022/10/05 08:03:56;;;;;;;3.22;2.92;;;19.20;64.80;;;;;;6250973;22;20152;-77
2022/10/05 08:06:39;;;;;;;3.47;3.17;;;19.30;65.00;;;;;;6251478;22;20207;-78
2022/10/05 08:09:21;;;;;;;3.25;3.00;;;19.30;65.00;;;;;;6250288;22;20192;-77
2022/10/05 08:12:10;;;;;;;3.95;2.88;;;19.30;65.00;;;;;;6250549;22;20172;-77
2022/10/05 08:14:50;;;;;;;2.90;2.65;;;19.30;65.10;;;;;;6255182;22;20513;-77
2022/10/05 08:17:45;;;;;;;2.92;2.72;;;19.30;65.20;;;;;;6277352;22;20159;-78
2022/10/05 08:20:43;;;;;;;3.28;3.00;;;19.30;65.20;;;;;;6277489;22;20153;-78
2022/10/05 08:23:34;;;;;;;3.40;2.80;;;19.30;65.40;;;;;;6277536;22;20210;-78
2022/10/05 08:26:21;;;;;;;2.83;2.63;;;19.30;65.30;;;;;;6205363;22;20180;-78
2022/10/05 08:28:56;;;;;;;3.75;3.00;;;19.30;65.60;;;;;;6276574;22;20129;-78
2022/10/05 08:31:23;;;;;;;4.68;2.97;;;19.40;65.60;;;;;;6277304;22;20177;-78
2022/10/05 08:34:29;;;;;;;4.20;3.40;;;19.40;65.40;;;;;;6277159;22;20145;-78
2022/10/05 08:37:02;;;;;;;3.25;2.88;;;19.40;65.60;;;;;;6259962;22;20140;-78
2022/10/05 08:39:31;;;;;;;3.03;2.83;;;19.40;65.50;;;;;;6200753;22;20149;-78
2022/10/05 08:42:36;;;;;;;3.35;3.05;;;19.40;65.60;;;;;;6225347;22;20148;-78
2022/10/05 08:45:36;;;;;;;3.20;2.90;;;19.30;65.50;;;;;;6249714;22;20159;-78
2022/10/05 08:48:26;;;;;;;3.03;2.80;;;19.30;65.60;;;;;;6210459;22;20152;-78
2022/10/05 08:51:08;;;;;;;3.08;2.78;;;19.40;65.70;;;;;;6180745;22;20160;-78
2022/10/05 08:54:06;;;;;;;3.50;3.17;;;19.40;65.80;;;;;;6198650;22;20180;-78
2022/10/05 08:56:40;;;;;;;3.15;2.90;;;19.40;65.80;;;;;;6276944;22;20129;-78
2022/10/05 08:59:26;;;;;;;3.28;2.97;;;19.40;66.00;;;;;;6176552;22;20144;-78
2022/10/05 09:02:19;;;;;;;4.25;3.55;;;19.40;66.00;;;;;;6180380;22;20149;-78
2022/10/05 09:05:02;;;;;;;3.13;2.83;;;19.40;66.10;;;;;;6166241;22;20156;-78
2022/10/05 09:08:06;;;;;;;3.03;2.80;;;19.40;66.20;;;;;;6249818;22;20153;-78
2022/10/05 09:10:52;;;;;;;3.20;3.00;;;19.40;66.30;;;;;;6227432;23;20192;-78
2022/10/05 09:13:56;;;;;;;3.50;3.20;;;19.40;66.50;;;;;;6218378;23;20161;-79
2022/10/05 09:16:35;;;;;;;3.13;2.90;;;19.40;66.50;;;;;;6218533;23;20636;-78
2022/10/05 09:19:33;;;;;;;2.97;2.78;;;19.40;66.60;;;;;;6173295;23;20195;-78
2022/10/05 09:22:23;;;;;;;4.00;3.20;;;19.40;66.80;;;;;;6175932;23;20176;-79
2022/10/05 09:24:54;;;;;;;3.40;3.10;;;19.40;66.80;;;;;;6224020;23;20133;-79
2022/10/05 09:27:34;;;;;;;4.53;3.22;;;19.40;66.90;;;;;;6244975;23;20160;-79
2022/10/05 09:30:17;;;;;;;3.80;3.30;;;19.40;67.00;;;;;;6220623;23;20176;-79
2022/10/05 09:33:12;;;;;;;4.07;3.13;;;19.40;67.00;;;;;;6245865;22;20243;-79
2022/10/05 09:36:16;;;;;;;3.50;3.20;;;19.40;67.00;;;;;;6245871;22;20130;-78
2022/10/05 09:39:12;;;;;;;3.40;3.10;;;19.40;67.10;;;;;;6246381;22;20160;-79
2022/10/05 09:41:58;;;;;;;2.92;2.72;;;19.40;67.10;;;;;;6244893;23;20153;-79
2022/10/05 09:44:51;;;;;;;3.50;3.20;;;19.50;67.20;;;;;;6246093;22;20160;-78
2022/10/05 09:47:44;;;;;;;3.58;3.20;;;19.50;67.30;;;;;;6244050;23;20536;-79
2022/10/05 09:50:43;;;;;;;3.50;3.20;;;19.50;67.30;;;;;;6245998;22;20596;-79
2022/10/05 09:53:39;;;;;;;3.60;3.30;;;19.50;67.30;;;;;;6246213;22;20173;-78
2022/10/05 09:56:36;;;;;;;3.42;3.13;;;19.50;67.50;;;;;;6226025;23;20137;-78
2022/10/05 09:59:36;;;;;;;3.42;3.13;;;19.50;67.50;;;;;;6246323;22;20134;-78
2022/10/05 10:02:19;;;;;;;3.03;2.75;;;19.50;67.60;;;;;;6246312;22;20141;-79
2022/10/05 10:05:07;;;;;;;3.28;2.97;;;19.50;67.80;;;;;;6244538;23;20137;-78
2022/10/05 10:08:07;;;;;;;3.90;3.60;;;19.40;67.80;;;;;;6221491;23;20145;-79
2022/10/05 10:10:55;;;;;;;3.15;2.83;;;19.40;67.90;;;;;;6244616;23;20295;-79
2022/10/05 10:13:52;;;;;;;2.78;2.58;;;19.40;68.30;;;;;;6244470;23;20458;-78
2022/10/05 10:16:29;;;;;;;3.65;2.90;;;19.40;68.30;;;;;;6219271;23;20150;-78
2022/10/05 10:19:04;;;;;;;3.15;2.85;;;19.50;68.40;;;;;;6219033;23;20196;-79
2022/10/05 10:22:06;;;;;;;3.20;2.92;;;19.40;68.40;;;;;;6244880;23;20159;-78
2022/10/05 10:24:54;;;;;;;4.93;3.20;;;19.40;68.40;;;;;;6244719;23;20160;-78
2022/10/05 10:27:52;;;;;;;3.05;2.85;;;19.40;68.50;;;;;;6244298;23;20141;-79
2022/10/05 10:30:45;;;;;;;3.22;2.92;;;19.40;68.80;;;;;;6245103;23;20160;-79
2022/10/05 10:33:36;;;;;;;3.20;2.90;;;19.40;68.80;;;;;;6244276;23;20165;-78
2022/10/05 10:36:16;;;;;;;3.20;2.90;;;19.50;68.90;;;;;;6244435;23;20581;-78
2022/10/05 10:38:50;;;;;;;3.20;2.90;;;19.40;69.00;;;;;;6245563;22;20156;-78
2022/10/05 10:41:33;;;;;;;3.80;3.22;;;19.50;69.10;;;;;;6245355;23;20142;-79
2022/10/05 10:44:23;;;;;;;2.97;2.78;;;19.40;68.90;;;;;;6246102;22;20142;-78
2022/10/05 10:47:24;;;;;;;3.40;3.10;;;19.40;69.30;;;;;;6244018;23;20209;-78
2022/10/05 10:50:05;;;;;;;3.20;2.90;;;19.50;69.60;;;;;;6244198;23;20148;-78
2022/10/05 10:52:47;;;;;;;2.85;2.65;;;19.50;69.60;;;;;;6244448;23;20196;-78
2022/10/05 10:55:32;;;;;;;3.47;2.78;;;19.50;69.70;;;;;;6244315;23;20132;-78
2022/10/05 10:58:28;;;;;;;3.40;3.10;;;19.50;69.70;;;;;;6244267;23;20141;-78
2022/10/05 11:01:15;;;;;;;3.20;2.90;;;19.50;69.80;;;;;;6220707;23;20149;-78
2022/10/05 11:04:10;;;;;;;3.30;3.00;;;19.40;69.80;;;;;;6245898;23;20150;-78
2022/10/05 11:06:58;;;;;;;3.20;2.90;;;19.40;70.00;;;;;;6203804;23;20153;-78
2022/10/05 11:09:41;;;;;;;3.25;2.95;;;19.40;70.10;;;;;;6203649;23;20199;-78
2022/10/05 11:12:48;;;;;;;2.67;2.47;;;19.40;70.30;;;;;;6220396;23;20173;-78
2022/10/05 11:15:39;;;;;;;3.53;3.20;;;19.40;70.20;;;;;;6247257;22;20224;-78
2022/10/05 11:18:18;;;;;;;3.20;2.90;;;19.40;70.20;;;;;;6199509;23;20180;-78
2022/10/05 11:21:09;;;;;;;3.35;3.05;;;19.40;70.50;;;;;;6248335;22;20141;-78
2022/10/05 11:23:55;;;;;;;3.13;2.83;;;19.40;70.30;;;;;;6219341;23;20180;-78
2022/10/05 11:26:40;;;;;;;3.30;3.00;;;19.40;70.50;;;;;;6245459;23;20639;-78
2022/10/05 11:29:31;;;;;;;2.90;2.55;;;19.50;70.30;;;;;;6245594;23;20134;-78
2022/10/05 11:32:16;;;;;;;2.47;2.28;;;19.50;70.60;;;;;;6245728;23;20632;-79
2022/10/05 11:34:59;;;;;;;2.67;2.47;;;19.50;70.70;;;;;;6245550;23;20438;-79
2022/10/05 11:37:56;;;;;;;3.30;3.00;;;19.40;70.60;;;;;;6222769;23;20152;-79
2022/10/05 11:40:37;;;;;;;3.35;3.05;;;19.40;70.70;;;;;;6245747;23;20212;-78
2022/10/05 11:43:22;;;;;;;3.13;2.90;;;19.40;70.70;;;;;;6245421;23;20137;-79
2022/10/05 11:46:27;;;;;;;3.10;2.80;;;19.40;71.00;;;;;;6245357;23;20192;-78
2022/10/05 11:49:20;;;;;;;2.88;2.67;;;19.40;71.10;;;;;;6207556;23;20177;-80
2022/10/05 11:51:59;;;;;;;3.22;2.92;;;19.40;71.10;;;;;;6246830;22;20173;-78
2022/10/05 11:54:36;;;;;;;3.00;2.80;;;19.40;71.20;;;;;;6246789;22;20580;-78
2022/10/05 11:57:08;;;;;;;3.05;2.78;;;19.40;71.30;;;;;;6149218;23;20593;-79
2022/10/05 11:59:50;;;;;;;3.22;3.00;;;19.40;71.50;;;;;;6245356;23;20129;-78
2022/10/05 12:02:47;;;;;;;2.95;2.42;;;19.40;71.40;;;;;;6173968;23;20182;-78
2022/10/05 12:05:31;;;;;;;3.10;2.80;;;19.40;71.50;;;;;;6133002;23;20152;-78
2022/10/05 12:08:15;;;;;;;2.80;2.60;;;19.40;71.70;;;;;;6220524;23;20150;-79
2022/10/05 12:10:50;;;;;;;2.90;2.70;;;19.40;71.80;;;;;;6173761;23;20197;-78
2022/10/05 12:13:26;;;;;;;3.00;2.78;;;19.40;72.70;;;;;;6172809;23;20166;-78
2022/10/05 12:16:14;;;;;;;2.97;2.70;;;19.40;71.90;;;;;;6246926;22;20160;-78
2022/10/05 12:19:00;;;;;;;2.58;2.38;;;19.40;72.00;;;;;;6244851;23;20488;-78
2022/10/05 12:21:48;;;;;;;2.72;2.53;;;19.40;72.00;;;;;;6221963;23;20137;-78
2022/10/05 12:24:42;;;;;;;2.90;2.70;;;19.40;72.00;;;;;;6153758;23;20242;-78
2022/10/05 12:27:27;;;;;;;2.85;2.58;;;19.40;72.00;;;;;;6104361;23;20221;-79
2022/10/05 12:30:02;;;;;;;2.47;2.28;;;19.40;72.10;;;;;;6081606;23;20158;-78
2022/10/05 12:32:52;;;;;;;2.92;2.63;;;19.40;72.10;;;;;;6105276;23;20229;-78
2022/10/05 12:35:30;;;;;;;2.92;2.67;;;19.40;72.10;;;;;;6104729;23;20588;-78
2022/10/05 12:38:03;;;;;;;2.78;2.58;;;19.40;72.20;;;;;;6106681;23;20155;-78
2022/10/05 12:40:50;;;;;;;2.80;2.60;;;19.40;72.30;;;;;;6070622;23;20167;-80
2022/10/05 12:43:30;;;;;;;4.28;2.50;;;19.40;72.30;;;;;;6048279;23;20183;-78
2022/10/05 12:46:19;;;;;;;2.72;2.53;;;19.40;72.70;;;;;;6094024;23;20161;-78
2022/10/05 12:49:01;;;;;;;2.90;2.70;;;19.40;72.40;;;;;;6094528;23;20181;-78
2022/10/05 12:51:40;;;;;;;2.85;2.60;;;19.40;72.40;;;;;;6094824;23;20239;-78
2022/10/05 12:54:31;;;;;;;3.10;2.80;;;19.40;72.30;;;;;;6096204;23;20608;-78
2022/10/05 12:57:09;;;;;;;2.75;2.53;;;19.40;72.40;;;;;;6099103;23;20160;-78
2022/10/05 12:59:41;;;;;;;2.78;2.58;;;19.40;72.60;;;;;;6056081;23;20240;-78
2022/10/05 13:02:37;;;;;;;2.63;2.42;;;19.40;72.50;;;;;;6076154;23;20156;-78
2022/10/05 13:05:29;;;;;;;2.70;2.50;;;19.30;72.50;;;;;;6123639;23;20136;-78
2022/10/05 13:08:10;;;;;;;2.78;2.58;;;19.40;72.70;;;;;;6104963;23;20537;-78
2022/10/05 13:10:47;;;;;;;2.63;2.42;;;19.40;72.70;;;;;;6140330;23;20200;-78
2022/10/05 13:13:40;;;;;;;2.50;2.30;;;19.40;72.80;;;;;;6245761;22;20157;-79
2022/10/05 13:16:17;;;;;;;2.55;2.35;;;19.40;72.80;;;;;;6244232;23;20133;-78
2022/10/05 13:19:06;;;;;;;2.40;2.20;;;19.40;72.90;;;;;;6244382;23;20133;-78
2022/10/05 13:21:46;;;;;;;2.50;2.30;;;19.40;73.00;;;;;;6248578;22;20213;-78
2022/10/05 13:24:26;;;;;;;3.20;2.33;;;19.40;72.90;;;;;;6245716;22;20168;-78
2022/10/05 13:27:07;;;;;;;3.00;2.80;;;19.50;72.90;;;;;;6246281;22;20138;-78
2022/10/05 13:29:37;;;;;;;2.75;2.55;;;19.50;73.00;;;;;;6246128;22;20133;-78
2022/10/05 13:32:06;;;;;;;2.53;2.30;;;19.50;72.80;;;;;;6245454;22;20180;-79
2022/10/05 13:34:39;;;;;;;6.15;2.40;;;19.50;73.00;;;;;;6244089;23;20199;-78
2022/10/05 13:37:26;;;;;;;2.70;2.50;;;19.50;73.00;;;;;;6245370;22;20137;-78
2022/10/05 13:40:16;;;;;;;2.70;2.50;;;19.50;73.10;;;;;;6245891;22;20156;-78
2022/10/05 13:42:47;;;;;;;2.70;2.50;;;19.50;73.20;;;;;;6244348;23;20157;-78
2022/10/05 13:45:21;;;;;;;2.60;2.40;;;19.40;73.20;;;;;;6244136;23;20140;-77
2022/10/05 13:48:17;;;;;;;2.60;2.40;;;19.50;73.20;;;;;;6245762;22;20193;-77
2022/10/05 13:50:56;;;;;;;2.60;2.40;;;19.50;73.30;;;;;;6223092;23;20149;-78
2022/10/05 13:53:30;;;;;;;2.83;2.63;;;19.50;73.50;;;;;;6243794;23;20130;-78
2022/10/05 13:56:06;;;;;;;2.90;2.70;;;19.50;73.50;;;;;;6193726;23;20153;-78
2022/10/05 13:58:56;;;;;;;3.10;2.80;;;19.50;73.30;;;;;;6195395;23;20153;-78
2022/10/05 14:01:34;;;;;;;3.00;2.80;;;19.50;73.30;;;;;;6200927;23;20160;-78
2022/10/05 14:04:19;;;;;;;2.80;2.60;;;19.50;73.40;;;;;;6244417;23;20225;-78
2022/10/05 14:06:53;;;;;;;3.13;2.83;;;19.50;73.60;;;;;;6244911;22;20133;-78
2022/10/05 14:09:29;;;;;;;3.00;2.70;;;19.50;73.80;;;;;;6140344;23;20197;-78